ADDS METAR Data INFO
IDs: Format: Raw Decoded Include TAF

Data at: 2117 UTC 19 Jul 2018

KLAS 192056Z VRB06KT 10SM SCT110 SCT200 41/13 A2990 RMK AO2 LTG DSNT W AND NW SLP091 CB DSNT W-N ACC DSNT NE-E AND W T04110133 58025
KLAS 191956Z 17009KT 10SM SCT110 SCT200 41/13 A2993 RMK AO2 LTG DSNT NW SLP102 CB DSNT N AND NW ACC DSNT E AND W T04060128
KLAS 191856Z 18003KT 10SM FEW110 SCT200 39/13 A2996 RMK AO2 SLP110 CB DSNT N AND NW T03940133
KLAS 191756Z 11005KT 10SM FEW110 SCT200 38/16 A2998 RMK AO2 SLP119 TCU DSNT NW T03780161 10383 20322 50000
KLAS 191656Z 00000KT 10SM FEW110 SCT200 37/17 A2999 RMK AO2 SLP120 T03670167
KLAS 191556Z 19004KT 10SM FEW110 SCT200 35/17 A2999 RMK AO2 SLP123 T03500172
KLAS 191456Z 00000KT 10SM FEW200 34/17 A2998 RMK AO2 SLP119 T03390172 52017
KLAS 191356Z 27004KT 10SM FEW200 33/18 A2996 RMK AO2 SLP113 T03280178
KLAS 191256Z 25003KT 10SM FEW250 32/17 A2994 RMK AO2 SLP106 T03220172
KLAS 191156Z 20003KT 10SM FEW200 33/17 A2993 RMK AO2 SLP100 T03280172 10361 20328 53004
KLAS 191056Z 21004KT 10SM FEW200 33/17 A2991 RMK AO2 SLP095 T03330167
KLAS 190956Z 17006KT 10SM FEW200 33/17 A2991 RMK AO2 SLP094 T03330167
KLAS 190856Z 17006KT 10SM BKN200 34/17 A2992 RMK AO2 SLP096 T03390167 51005
KLAS 190756Z 16006KT 10SM BKN250 34/17 A2991 RMK AO2 SLP095 T03440167 404220311
KLAS 190656Z 17008KT 10SM SCT250 36/16 A2991 RMK AO2 SLP095 T03560161
KLAS 190556Z 19009G16KT 10SM SCT250 36/16 A2990 RMK AO2 SLP091 T03610161 10417 20361 50006
KLAS 190456Z 17007KT 10SM FEW170 SCT250 37/17 A2990 RMK AO2 SLP093 T03670167
KLAS 190356Z 17009G19KT 10SM FEW170 SCT250 38/16 A2989 RMK AO2 SLP088 T03780161
KLAS 190256Z 17011G17KT 10SM FEW170 SCT250 39/16 A2988 RMK AO2 SLP085 T03890156 53000
KLAS 190156Z 24007KT 10SM FEW110 FEW170 SCT250 41/14 A2987 RMK AO2 SLP082 T04060139
KLAS 190056Z 20008KT 10SM FEW110 FEW170 SCT250 41/15 A2987 RMK AO2 SLP080 CB DSNT SE T04110150
KLAS 182356Z 13009G15KT 10SM FEW110 SCT250 41/16 A2988 RMK AO2 SLP084 T04110156 10422 20367 56023
KLAS 182256Z 17008KT 140V210 10SM FEW110 SCT250 41/16 A2990 RMK AO2 LTG DSNT W SLP089 T04110156
KLAS 182156Z VRB06G15KT 10SM SCT110 SCT250 41/17 A2992 RMK AO2 SLP098 TCU DSNT N T04110167
KLAS 182056Z 07006KT 10SM SCT110 SCT250 40/17 A2995 RMK AO2 SLP110 ACC DSNT N AND W T04000167 58023
KLAS 181956Z 08006KT 10SM FEW110 FEW150 SCT250 40/17 A2999 RMK AO2 SLP121 CB DSNT N AND NW ACC DSNT W T04000172 $
KLAS 181856Z VRB03KT 10SM FEW110 FEW150 SCT250 39/17 A3001 RMK AO2 SLP129 ACC DSNT N AND SW T03890167 $
KLAS 181756Z 00000KT 10SM SCT150 SCT200 BKN250 37/17 A3003 RMK AO2 SLP136 T03670172 10372 20322 50003 $
KLAS 181656Z 00000KT 10SM FEW100 SCT150 BKN200 BKN250 36/17 A3003 RMK AO2 SLP134 T03560172 $
KLAS 181556Z COR VRB03KT 10SM FEW100 SCT150 BKN200 BKN250 34/18 A3003 RMK AO2 SLP135 T03440178 $
KLAS 181456Z 09004KT 10SM SCT150 BKN200 BKN250 33/18 A3002 RMK AO2 SLP131 T03280183 53020 $
KLAS 181356Z 20003KT 10SM BKN180 BKN250 33/18 A3000 RMK AO2 SLP123 T03280178 $
KLAS 181256Z 14007KT 10SM FEW100 BKN180 BKN250 33/17 A2997 RMK AO2 SLP115 T03280172 $
KLAS 181156Z 10009KT 10SM FEW090 BKN160 OVC200 33/17 A2995 RMK AO2 SLP108 T03280172 10339 20300 55006 $
KLAS 181056Z 15004KT 10SM FEW090 BKN160 OVC220 33/17 A2993 RMK AO2 SLP101 T03280167 $
KLAS 180956Z 25010KT 10SM FEW090 BKN150 BKN220 33/16 A2991 RMK AO2 SLP095 T03330161 $